Time,TemperatureF,DewpointF,PressureIn,WindDirection,WindDirectionDegrees,WindSpeedMPH,WindSpeedGustMPH,Humidity,HourlyPrecipIn,Conditions,Clouds,dailyrainin,SoftwareType,DateUTC
2013-03-04 00:04:00,58.5,42.9,29.79,South,180,8.9,8.9,56,0.00,,,0.00,WUHU216HW,2013-03-04 06:04:00,
2013-03-04 00:29:00,58.0,42.9,29.77,SE,135,5.4,5.4,57,0.00,,,0.00,WUHU216HW,2013-03-04 06:29:00,
2013-03-04 00:34:00,58.0,42.9,29.77,SE,135,5.4,5.4,57,0.00,,,0.00,WUHU216HW,2013-03-04 06:34:00,
2013-03-04 00:59:00,57.2,42.1,29.76,SSE,158,9.2,9.2,57,0.00,,,0.00,WUHU216HW,2013-03-04 06:59:00,
2013-03-04 01:04:00,57.2,42.1,29.76,SSE,158,9.2,9.2,57,0.00,,,0.00,WUHU216HW,2013-03-04 07:04:00,
2013-03-04 01:29:00,56.7,42.6,29.76,South,180,8.1,8.1,59,0.00,,,0.00,WUHU216HW,2013-03-04 07:29:00,
2013-03-04 01:34:00,56.7,42.6,29.76,South,180,8.1,8.1,59,0.00,,,0.00,WUHU216HW,2013-03-04 07:34:00,
2013-03-04 01:59:00,55.8,42.9,29.74,SSE,158,8.3,8.3,62,0.00,,,0.00,WUHU216HW,2013-03-04 07:59:00,
2013-03-04 02:04:00,55.8,42.9,29.74,SSE,158,8.3,8.3,62,0.00,,,0.00,WUHU216HW,2013-03-04 08:04:00,
2013-03-04 02:29:00,55.4,43.4,29.73,SSE,158,7.6,7.6,64,0.00,,,0.00,WUHU216HW,2013-03-04 08:29:00,
2013-03-04 02:34:00,55.4,43.4,29.73,SSE,158,7.6,7.6,64,0.00,,,0.00,WUHU216HW,2013-03-04 08:34:00,
2013-03-04 02:59:00,55.3,44.9,29.72,SSW,203,5.4,5.4,68,0.00,,,0.00,WUHU216HW,2013-03-04 08:59:00,
2013-03-04 03:04:00,55.3,44.9,29.72,SSW,203,5.4,5.4,68,0.00,,,0.00,WUHU216HW,2013-03-04 09:04:00,
2013-03-04 03:29:00,55.1,45.5,29.71,SSW,203,9.6,9.6,70,0.00,,,0.00,WUHU216HW,2013-03-04 09:29:00,
2013-03-04 03:34:00,55.1,45.5,29.71,SSW,203,9.6,9.6,70,0.00,,,0.00,WUHU216HW,2013-03-04 09:34:00,
2013-03-04 03:59:00,55.1,46.3,29.69,SSW,203,15.9,15.9,72,0.00,,,0.00,WUHU216HW,2013-03-04 09:59:00,
2013-03-04 04:04:00,55.1,46.3,29.69,SSW,203,15.9,15.9,72,0.00,,,0.00,WUHU216HW,2013-03-04 10:04:00,
2013-03-04 04:29:00,54.7,46.6,29.69,South,180,12.1,12.1,74,0.00,,,0.00,WUHU216HW,2013-03-04 10:29:00,
2013-03-04 04:34:00,54.7,46.6,29.69,South,180,12.1,12.1,74,0.00,,,0.00,WUHU216HW,2013-03-04 10:34:00,
2013-03-04 04:59:00,55.1,46.9,29.69,SSE,158,7.6,7.6,74,0.00,,,0.00,WUHU216HW,2013-03-04 10:59:00,
2013-03-04 05:04:00,55.1,46.9,29.69,SSE,158,7.6,7.6,74,0.00,,,0.00,WUHU216HW,2013-03-04 11:04:00,
2013-03-04 05:29:00,55.1,47.3,29.70,South,180,7.6,7.6,75,0.00,,,0.00,WUHU216HW,2013-03-04 11:29:00,
2013-03-04 05:34:00,55.1,47.3,29.70,South,180,7.6,7.6,75,0.00,,,0.00,WUHU216HW,2013-03-04 11:34:00,
2013-03-04 05:59:00,55.6,47.4,29.69,SSE,158,8.1,8.1,74,0.00,,,0.00,WUHU216HW,2013-03-04 11:59:00,
2013-03-04 06:04:00,55.6,47.4,29.69,SSE,158,8.1,8.1,74,0.00,,,0.00,WUHU216HW,2013-03-04 12:04:00,
2013-03-04 06:29:00,55.8,48.0,29.69,South,180,6.3,6.3,75,0.00,,,0.00,WUHU216HW,2013-03-04 12:29:00,
2013-03-04 06:34:00,55.8,48.0,29.69,South,180,6.3,6.3,75,0.00,,,0.00,WUHU216HW,2013-03-04 12:34:00,
2013-03-04 06:59:00,56.0,48.5,29.69,SSE,158,7.6,7.6,76,0.00,,,0.00,WUHU216HW,2013-03-04 12:59:00,
2013-03-04 07:04:00,56.0,48.5,29.69,SSE,158,7.6,7.6,76,0.00,,,0.00,WUHU216HW,2013-03-04 13:04:00,
2013-03-04 07:29:00,56.7,49.1,29.68,South,180,8.1,8.1,76,0.00,,,0.00,WUHU216HW,2013-03-04 13:29:00,
2013-03-04 07:34:00,56.7,49.1,29.68,South,180,8.1,8.1,76,0.00,,,0.00,WUHU216HW,2013-03-04 13:34:00,
2013-03-04 07:59:00,57.2,49.7,29.67,South,180,9.8,9.8,76,0.00,,,0.00,WUHU216HW,2013-03-04 13:59:00,
2013-03-04 08:04:00,57.2,49.7,29.67,South,180,9.8,9.8,76,0.00,,,0.00,WUHU216HW,2013-03-04 14:04:00,
2013-03-04 08:29:00,58.3,50.4,29.68,SSW,203,7.8,7.8,75,0.00,,,0.00,WUHU216HW,2013-03-04 14:29:00,
2013-03-04 08:34:00,58.3,50.4,29.68,SSW,203,7.8,7.8,75,0.00,,,0.00,WUHU216HW,2013-03-04 14:34:00,
2013-03-04 08:59:00,61.2,51.0,29.68,SSW,203,10.5,10.5,69,0.00,,,0.00,WUHU216HW,2013-03-04 14:59:00,
2013-03-04 09:04:00,61.2,51.0,29.68,SSW,203,10.5,10.5,69,0.00,,,0.00,WUHU216HW,2013-03-04 15:04:00,
2013-03-04 09:29:00,63.4,51.8,29.66,SSW,203,9.8,9.8,66,0.00,,,0.00,WUHU216HW,2013-03-04 15:29:00,
2013-03-04 09:34:00,63.4,51.8,29.66,SSW,203,9.8,9.8,66,0.00,,,0.00,WUHU216HW,2013-03-04 15:34:00,
2013-03-04 09:59:00,64.6,51.7,29.66,SE,135,13.6,13.6,63,0.00,,,0.00,WUHU216HW,2013-03-04 15:59:00,
2013-03-04 10:04:00,64.6,51.7,29.66,SE,135,13.6,13.6,63,0.00,,,0.00,WUHU216HW,2013-03-04 16:04:00,
2013-03-04 10:29:00,66.6,51.4,29.67,SSW,203,6.7,6.7,58,0.00,,,0.00,WUHU216HW,2013-03-04 16:29:00,
2013-03-04 10:34:00,66.6,51.4,29.67,SSW,203,6.7,6.7,58,0.00,,,0.00,WUHU216HW,2013-03-04 16:34:00,
2013-03-04 10:59:00,68.9,52.0,29.66,SSW,203,8.9,8.9,55,0.00,,,0.00,WUHU216HW,2013-03-04 16:59:00,
2013-03-04 11:04:00,68.9,52.0,29.66,SSW,203,8.9,8.9,55,0.00,,,0.00,WUHU216HW,2013-03-04 17:04:00,
2013-03-04 11:29:00,67.5,51.2,29.66,SSW,203,10.1,10.1,56,0.00,,,0.00,WUHU216HW,2013-03-04 17:29:00,
2013-03-04 11:34:00,67.5,51.2,29.66,SSW,203,10.1,10.1,56,0.00,,,0.00,WUHU216HW,2013-03-04 17:34:00,
2013-03-04 11:59:00,70.9,51.8,29.64,SSW,203,8.7,8.7,51,0.00,,,0.00,WUHU216HW,2013-03-04 17:59:00,
2013-03-04 12:04:00,70.9,51.8,29.64,SSW,203,8.7,8.7,51,0.00,,,0.00,WUHU216HW,2013-03-04 18:04:00,
2013-03-04 12:29:00,72.4,51.5,29.63,South,180,8.5,8.5,48,0.00,,,0.00,WUHU216HW,2013-03-04 18:29:00,
2013-03-04 12:30:00,72.4,51.5,29.63,South,180,8.5,8.5,48,0.00,,,0.00,WUHU216HW,2013-03-04 18:30:00,
2013-03-04 12:35:00,72.4,51.5,29.63,South,180,8.5,8.5,48,0.00,,,0.00,WUHU216HW,2013-03-04 18:35:00,
2013-03-04 12:59:00,72.5,52.2,29.61,South,180,5.8,5.8,49,0.00,,,0.00,WUHU216HW,2013-03-04 18:59:00,
2013-03-04 13:04:00,72.5,52.2,29.61,South,180,5.8,5.8,49,0.00,,,0.00,WUHU216HW,2013-03-04 19:04:00,
2013-03-04 13:29:00,75.2,53.0,29.59,SE,135,5.6,5.6,46,0.00,,,0.00,WUHU216HW,2013-03-04 19:29:00,
2013-03-04 13:34:00,75.2,53.0,29.59,SE,135,5.6,5.6,46,0.00,,,0.00,WUHU216HW,2013-03-04 19:34:00,
2013-03-04 13:39:00,75.2,53.0,29.59,SE,135,5.6,5.6,46,0.00,,,0.00,WUHU216HW,2013-03-04 19:39:00,
2013-03-04 13:59:00,76.3,52.7,29.58,SSE,158,8.9,8.9,44,0.00,,,0.00,WUHU216HW,2013-03-04 19:59:00,
2013-03-04 14:04:00,76.3,52.7,29.58,SSE,158,8.9,8.9,44,0.00,,,0.00,WUHU216HW,2013-03-04 20:04:00,
2013-03-04 14:17:00,76.9,53.2,29.58,SSE,158,9.8,9.8,44,0.00,,,0.00,WUHU216HW,2013-03-04 20:17:00,
2013-03-04 14:22:00,76.5,52.9,29.58,South,180,7.2,13.9,44,0.00,,,0.00,WUHU216HW,2013-03-04 20:22:00,
2013-03-04 14:27:00,76.7,53.1,29.57,SE,135,9.2,13.9,44,0.00,,,0.00,WUHU216HW,2013-03-04 20:27:00,
2013-03-04 14:32:00,76.9,53.2,29.58,SE,135,8.9,9.2,44,0.00,,,0.00,WUHU216HW,2013-03-04 20:32:00,
2013-03-04 14:37:00,76.5,52.9,29.58,SSE,158,6.3,9.8,44,0.00,,,0.00,WUHU216HW,2013-03-04 20:37:00,
2013-03-04 14:42:00,76.7,53.1,29.58,SSW,203,7.8,9.8,44,0.00,,,0.00,WUHU216HW,2013-03-04 20:42:00,
2013-03-04 14:47:00,76.9,52.0,29.58,SSW,203,9.2,9.2,42,0.00,,,0.00,WUHU216HW,2013-03-04 20:47:00,
2013-03-04 14:52:00,77.2,52.3,29.58,SSW,203,8.5,12.3,42,0.00,,,0.00,WUHU216HW,2013-03-04 20:52:00,
2013-03-04 14:57:00,77.8,53.5,29.58,SE,135,9.2,12.3,43,0.00,,,0.00,WUHU216HW,2013-03-04 20:57:00,
2013-03-04 15:02:00,78.1,53.1,29.58,SSW,203,6.3,11.0,42,0.00,,,0.00,WUHU216HW,2013-03-04 21:02:00,
2013-03-04 15:07:00,77.8,53.5,29.58,South,180,6.9,11.0,43,0.00,,,0.00,WUHU216HW,2013-03-04 21:07:00,
2013-03-04 15:12:00,77.8,53.5,29.59,SSE,158,8.5,9.8,43,0.00,,,0.00,WUHU216HW,2013-03-04 21:12:00,
2013-03-04 15:17:00,78.5,52.2,29.58,South,180,9.6,12.8,40,0.00,,,0.00,WUHU216HW,2013-03-04 21:17:00,
2013-03-04 15:22:00,79.0,52.8,29.58,SSW,203,6.9,12.8,40,0.00,,,0.00,WUHU216HW,2013-03-04 21:22:00,
2013-03-04 15:27:00,79.4,53.0,29.57,SSE,158,10.1,11.4,40,0.00,,,0.00,WUHU216HW,2013-03-04 21:27:00,
2013-03-04 15:32:00,79.4,53.6,29.57,SSE,158,6.7,11.4,41,0.00,,,0.00,WUHU216HW,2013-03-04 21:32:00,
2013-03-04 15:37:00,79.0,53.9,29.57,SSE,158,4.7,10.7,42,0.00,,,0.00,WUHU216HW,2013-03-04 21:37:00,
2013-03-04 15:42:00,80.1,53.7,29.57,SSE,158,11.2,11.2,40,0.00,,,0.00,WUHU216HW,2013-03-04 21:42:00,
2013-03-04 15:47:00,79.6,53.2,29.57,South,180,10.5,11.2,40,0.00,,,0.00,WUHU216HW,2013-03-04 21:47:00,
2013-03-04 15:52:00,79.2,52.9,29.57,South,180,8.5,11.2,40,0.00,,,0.00,WUHU216HW,2013-03-04 21:52:00,
2013-03-04 15:57:00,79.2,52.9,29.58,SE,135,8.5,12.8,40,0.00,,,0.00,WUHU216HW,2013-03-04 21:57:00,
2013-03-04 16:02:00,78.8,53.2,29.57,South,180,8.3,12.8,41,0.00,,,0.00,WUHU216HW,2013-03-04 22:02:00,
2013-03-04 16:07:00,78.5,52.8,29.57,SSE,158,8.9,12.5,41,0.00,,,0.00,WUHU216HW,2013-03-04 22:07:00,
2013-03-04 16:12:00,78.8,53.2,29.57,SE,135,6.5,12.5,41,0.00,,,0.00,WUHU216HW,2013-03-04 22:12:00,
2013-03-04 16:17:00,78.1,53.1,29.58,South,180,6.9,9.8,42,0.00,,,0.00,WUHU216HW,2013-03-04 22:17:00,
2013-03-04 16:22:00,77.8,52.8,29.57,South,180,3.6,11.2,42,0.00,,,0.00,WUHU216HW,2013-03-04 22:22:00,
2013-03-04 16:27:00,77.4,52.5,29.58,SE,135,11.2,11.2,42,0.00,,,0.00,WUHU216HW,2013-03-04 22:27:00,
2013-03-04 16:32:00,76.9,53.2,29.58,South,180,7.6,11.2,44,0.00,,,0.00,WUHU216HW,2013-03-04 22:32:00,
2013-03-04 16:37:00,76.0,52.4,29.58,SSW,203,9.2,11.6,44,0.00,,,0.00,WUHU216HW,2013-03-04 22:37:00,
2013-03-04 16:42:00,75.6,52.8,29.58,SSE,158,6.5,11.6,45,0.00,,,0.00,WUHU216HW,2013-03-04 22:42:00,
2013-03-04 16:47:00,76.1,52.6,29.58,SE,135,6.3,10.7,44,0.00,,,0.00,WUHU216HW,2013-03-04 22:47:00,
2013-03-04 16:52:00,76.7,53.1,29.58,SE,135,3.8,8.7,44,0.00,,,0.00,WUHU216HW,2013-03-04 22:52:00,
2013-03-04 16:57:00,77.4,52.5,29.58,SSW,203,4.5,9.4,42,0.00,,,0.00,WUHU216HW,2013-03-04 22:57:00,
2013-03-04 17:02:00,77.6,52.7,29.58,South,180,8.5,9.4,42,0.00,,,0.00,WUHU216HW,2013-03-04 23:02:00,
2013-03-04 17:07:00,77.0,52.7,29.58,SSW,203,7.8,8.5,43,0.00,,,0.00,WUHU216HW,2013-03-04 23:07:00,
2013-03-04 17:12:00,77.0,52.7,29.57,South,180,6.3,8.5,43,0.00,,,0.00,WUHU216HW,2013-03-04 23:12:00,
2013-03-04 17:17:00,76.5,52.9,29.58,South,180,8.7,8.7,44,0.00,,,0.00,WUHU216HW,2013-03-04 23:17:00,
2013-03-04 17:22:00,76.1,52.6,29.58,South,180,6.0,8.7,44,0.00,,,0.00,WUHU216HW,2013-03-04 23:22:00,
2013-03-04 17:27:00,76.1,53.2,29.58,South,180,8.3,8.3,45,0.00,,,0.00,WUHU216HW,2013-03-04 23:27:00,
2013-03-04 17:32:00,76.1,52.6,29.58,South,180,5.1,8.9,44,0.00,,,0.00,WUHU216HW,2013-03-04 23:32:00,
2013-03-04 17:37:00,76.0,51.9,29.58,SSE,158,6.7,9.8,43,0.00,,,0.00,WUHU216HW,2013-03-04 23:37:00,
2013-03-04 17:42:00,76.0,52.4,29.58,SW,225,6.7,9.8,44,0.00,,,0.00,WUHU216HW,2013-03-04 23:42:00,
2013-03-04 17:47:00,75.1,52.2,29.58,SSW,203,6.9,9.8,45,0.00,,,0.00,WUHU216HW,2013-03-04 23:47:00,
2013-03-04 17:52:00,73.8,51.6,29.58,SSW,203,6.5,9.8,46,0.00,,,0.00,WUHU216HW,2013-03-04 23:52:00,
2013-03-04 17:57:00,73.3,51.7,29.58,South,180,8.5,9.6,47,0.00,,,0.00,WUHU216HW,2013-03-04 23:57:00,
2013-03-04 18:02:00,72.7,51.9,29.58,SSE,158,6.9,9.6,48,0.00,,,0.00,WUHU216HW,2013-03-05 00:02:00,
2013-03-04 18:07:00,72.2,51.9,29.58,SSE,158,4.7,9.2,49,0.00,,,0.00,WUHU216HW,2013-03-05 00:07:00,
2013-03-04 18:12:00,71.6,51.4,29.58,SSW,203,3.6,7.4,49,0.00,,,0.00,WUHU216HW,2013-03-05 00:12:00,
2013-03-04 18:17:00,71.3,51.7,29.57,South,180,4.0,7.2,50,0.00,,,0.00,WUHU216HW,2013-03-05 00:17:00,
2013-03-04 18:22:00,70.9,51.8,29.58,South,180,5.4,6.9,51,0.00,,,0.00,WUHU216HW,2013-03-05 00:22:00,
2013-03-04 18:27:00,70.6,51.6,29.58,South,180,5.4,6.9,51,0.00,,,0.00,WUHU216HW,2013-03-05 00:27:00,
2013-03-04 18:32:00,70.2,51.8,29.58,South,180,4.7,6.9,52,0.00,,,0.00,WUHU216HW,2013-03-05 00:32:00,
2013-03-04 18:37:00,69.7,51.2,29.58,SSW,203,5.4,9.6,52,0.00,,,0.00,WUHU216HW,2013-03-05 00:37:00,
2013-03-04 18:42:00,69.5,51.6,29.58,South,180,8.3,9.6,53,0.00,,,0.00,WUHU216HW,2013-03-05 00:42:00,
2013-03-04 18:47:00,69.1,51.2,29.57,South,180,4.9,8.3,53,0.00,,,0.00,WUHU216HW,2013-03-05 00:47:00,
2013-03-04 18:52:00,68.9,51.6,29.58,SSE,158,2.7,6.7,54,0.00,,,0.00,WUHU216HW,2013-03-05 00:52:00,
2013-03-04 18:57:00,68.8,51.4,29.58,SSW,203,4.0,6.7,54,0.00,,,0.00,WUHU216HW,2013-03-05 00:57:00,
2013-03-04 19:03:00,68.4,51.0,29.58,SSW,203,2.0,5.6,54,0.00,,,0.00,WUHU216HW,2013-03-05 01:03:00,
2013-03-04 19:08:00,68.2,50.9,29.58,SE,135,1.3,4.5,54,0.00,,,0.00,WUHU216HW,2013-03-05 01:08:00,
2013-03-04 19:13:00,67.7,50.9,29.58,SSE,158,1.6,3.1,55,0.00,,,0.00,WUHU216HW,2013-03-05 01:13:00,
2013-03-04 19:18:00,67.3,51.0,29.58,South,180,1.3,2.2,56,0.00,,,0.00,WUHU216HW,2013-03-05 01:18:00,
2013-03-04 19:23:00,67.0,51.2,29.59,South,180,2.7,2.7,57,0.00,,,0.00,WUHU216HW,2013-03-05 01:23:00,
2013-03-04 19:28:00,66.6,50.9,29.59,SSW,203,1.8,3.1,57,0.00,,,0.00,WUHU216HW,2013-03-05 01:28:00,
2013-03-04 19:33:00,66.6,51.4,29.59,South,180,2.5,3.4,58,0.00,,,0.00,WUHU216HW,2013-03-05 01:33:00,
2013-03-04 19:38:00,66.4,51.2,29.59,South,180,1.1,3.4,58,0.00,,,0.00,WUHU216HW,2013-03-05 01:38:00,
2013-03-04 19:43:00,66.4,51.2,29.59,SSE,158,1.6,3.8,58,0.00,,,0.00,WUHU216HW,2013-03-05 01:43:00,
2013-03-04 19:48:00,66.4,50.8,29.59,South,180,1.8,3.8,57,0.00,,,0.00,WUHU216HW,2013-03-05 01:48:00,
2013-03-04 19:53:00,66.2,51.0,29.59,South,180,1.6,2.9,58,0.00,,,0.00,WUHU216HW,2013-03-05 01:53:00,
2013-03-04 19:58:00,66.2,51.0,29.59,SSE,158,2.0,2.9,58,0.00,,,0.00,WUHU216HW,2013-03-05 01:58:00,
2013-03-04 20:03:00,65.9,50.7,29.59,SSE,158,1.8,2.7,58,0.00,,,0.00,WUHU216HW,2013-03-05 02:03:00,
2013-03-04 20:08:00,65.5,50.9,29.59,SE,135,2.7,2.7,59,0.00,,,0.00,WUHU216HW,2013-03-05 02:08:00,
2013-03-04 20:13:00,65.2,50.5,29.59,SSE,158,2.5,2.7,59,0.00,,,0.00,WUHU216HW,2013-03-05 02:13:00,
2013-03-04 20:18:00,65.2,50.9,29.59,South,180,3.6,4.5,60,0.00,,,0.00,WUHU216HW,2013-03-05 02:18:00,
2013-03-04 20:23:00,65.2,50.9,29.59,SSW,203,3.6,5.4,60,0.00,,,0.00,WUHU216HW,2013-03-05 02:23:00,
2013-03-04 20:28:00,65.7,51.5,29.59,South,180,4.5,5.4,60,0.00,,,0.00,WUHU216HW,2013-03-05 02:28:00,
2013-03-04 20:33:00,66.1,51.4,29.59,SSW,203,4.5,6.7,59,0.00,,,0.00,WUHU216HW,2013-03-05 02:33:00,
2013-03-04 20:40:00,66.8,51.6,29.59,SSW,203,5.1,7.2,58,0.00,,,0.00,WUHU216HW,2013-03-05 02:40:00,
2013-03-04 20:46:00,66.8,51.6,29.59,SSW,203,5.1,6.0,58,0.00,,,0.00,WUHU216HW,2013-03-05 02:46:00,
2013-03-04 20:59:00,67.9,52.0,29.60,South,180,4.5,4.5,57,0.00,,,0.00,WUHU216HW,2013-03-05 02:59:00,
2013-03-04 21:04:00,67.9,52.0,29.60,South,180,4.5,4.5,57,0.00,,,0.00,WUHU216HW,2013-03-05 03:04:00,
2013-03-04 21:29:00,68.4,54.0,29.61,SSE,158,5.4,5.4,60,0.00,,,0.00,WUHU216HW,2013-03-05 03:29:00,
2013-03-04 21:34:00,68.4,54.0,29.61,SSE,158,5.4,5.4,60,0.00,,,0.00,WUHU216HW,2013-03-05 03:34:00,
2013-03-04 21:39:00,68.4,54.0,29.61,SSE,158,5.4,5.4,60,0.00,,,0.00,WUHU216HW,2013-03-05 03:39:00,
2013-03-04 21:59:00,68.0,54.9,29.61,South,180,7.4,7.4,63,0.00,,,0.00,WUHU216HW,2013-03-05 03:59:00,
2013-03-04 22:04:00,68.0,54.9,29.61,South,180,7.4,7.4,63,0.00,,,0.00,WUHU216HW,2013-03-05 04:04:00,
2013-03-04 22:29:00,67.3,55.1,29.62,SSE,158,3.4,3.4,65,0.00,,,0.00,WUHU216HW,2013-03-05 04:29:00,
2013-03-04 22:34:00,67.3,55.1,29.62,SSE,158,3.4,3.4,65,0.00,,,0.00,WUHU216HW,2013-03-05 04:34:00,
2013-03-04 22:59:00,66.4,55.9,29.62,SSW,203,4.7,4.7,69,0.00,,,0.00,WUHU216HW,2013-03-05 04:59:00,
2013-03-04 23:00:00,66.4,55.9,29.62,SSW,203,4.7,4.7,69,0.00,,,0.00,WUHU216HW,2013-03-05 05:00:00,
2013-03-04 23:05:00,66.4,55.9,29.62,SSW,203,4.7,4.7,69,0.00,,,0.00,WUHU216HW,2013-03-05 05:05:00,
2013-03-04 23:29:00,65.5,56.6,29.63,SSE,158,6.0,6.0,73,0.00,,,0.00,WUHU216HW,2013-03-05 05:29:00,
2013-03-04 23:34:00,65.5,56.6,29.63,SSE,158,6.0,6.0,73,0.00,,,0.00,WUHU216HW,2013-03-05 05:34:00,
2013-03-04 23:59:00,64.1,56.3,29.64,SW,225,4.7,4.7,76,0.00,,,0.00,WUHU216HW,2013-03-05 05:59:00,